sensor_id;sensor_type;location;lat;lon;timestamp;P1;durP1;ratioP1;P2;durP2;ratioP2
55915;SDS011;41826;53.246;-6.670;2023-06-22T00:01:49;2.78;;;2.10;;
55915;SDS011;41826;53.246;-6.670;2023-06-22T00:04:15;3.08;;;1.80;;
55915;SDS011;41826;53.246;-6.670;2023-06-22T00:06:40;3.58;;;2.10;;
55915;SDS011;41826;53.246;-6.670;2023-06-22T00:09:06;3.33;;;2.33;;
55915;SDS011;41826;53.246;-6.670;2023-06-22T00:11:32;2.78;;;2.00;;
55915;SDS011;41826;53.246;-6.670;2023-06-22T00:13:58;4.57;;;2.10;;
55915;SDS011;41826;53.246;-6.670;2023-06-22T00:16:24;2.75;;;1.60;;
55915;SDS011;41826;53.246;-6.670;2023-06-22T00:18:49;3.15;;;2.05;;
55915;SDS011;41826;53.246;-6.670;2023-06-22T00:21:14;2.15;;;1.92;;
55915;SDS011;41826;53.246;-6.670;2023-06-22T00:23:40;2.20;;;2.00;;
55915;SDS011;41826;53.246;-6.670;2023-06-22T00:26:06;2.80;;;1.80;;
55915;SDS011;41826;53.246;-6.670;2023-06-22T00:28:32;2.17;;;1.98;;
55915;SDS011;41826;53.246;-6.670;2023-06-22T00:30:57;1.98;;;1.65;;
55915;SDS011;41826;53.246;-6.670;2023-06-22T00:33:23;2.42;;;2.22;;
55915;SDS011;41826;53.246;-6.670;2023-06-22T00:35:48;2.42;;;2.08;;
55915;SDS011;41826;53.246;-6.670;2023-06-22T00:38:17;2.30;;;2.00;;
55915;SDS011;41826;53.246;-6.670;2023-06-22T00:40:43;2.00;;;1.90;;
55915;SDS011;41826;53.246;-6.670;2023-06-22T00:43:08;2.40;;;2.20;;
55915;SDS011;41826;53.246;-6.670;2023-06-22T00:45:33;2.35;;;2.10;;
55915;SDS011;41826;53.246;-6.670;2023-06-22T00:47:59;2.45;;;1.73;;
55915;SDS011;41826;53.246;-6.670;2023-06-22T00:50:26;2.75;;;1.98;;
55915;SDS011;41826;53.246;-6.670;2023-06-22T00:52:57;1.92;;;1.70;;
55915;SDS011;41826;53.246;-6.670;2023-06-22T00:55:24;1.70;;;1.60;;
55915;SDS011;41826;53.246;-6.670;2023-06-22T00:57:53;2.50;;;1.92;;
55915;SDS011;41826;53.246;-6.670;2023-06-22T01:00:25;3.17;;;1.90;;
55915;SDS011;41826;53.246;-6.670;2023-06-22T01:02:51;2.10;;;1.90;;
55915;SDS011;41826;53.246;-6.670;2023-06-22T01:05:18;3.10;;;1.90;;
55915;SDS011;41826;53.246;-6.670;2023-06-22T01:10:25;1.95;;;1.73;;
55915;SDS011;41826;53.246;-6.670;2023-06-22T01:16:02;4.35;;;1.98;;
55915;SDS011;41826;53.246;-6.670;2023-06-22T01:18:30;4.28;;;2.10;;
55915;SDS011;41826;53.246;-6.670;2023-06-22T01:20:58;2.35;;;1.90;;
55915;SDS011;41826;53.246;-6.670;2023-06-22T01:29:19;1.65;;;1.50;;
55915;SDS011;41826;53.246;-6.670;2023-06-22T01:31:46;2.60;;;1.85;;
55915;SDS011;41826;53.246;-6.670;2023-06-22T01:34:14;2.58;;;1.73;;
55915;SDS011;41826;53.246;-6.670;2023-06-22T01:36:41;1.80;;;1.60;;
55915;SDS011;41826;53.246;-6.670;2023-06-22T01:39:08;2.92;;;1.50;;
55915;SDS011;41826;53.246;-6.670;2023-06-22T01:41:35;2.45;;;1.90;;
55915;SDS011;41826;53.246;-6.670;2023-06-22T01:44:03;1.52;;;1.42;;
55915;SDS011;41826;53.246;-6.670;2023-06-22T01:46:32;2.00;;;1.63;;
55915;SDS011;41826;53.246;-6.670;2023-06-22T01:49:04;1.65;;;1.38;;
55915;SDS011;41826;53.246;-6.670;2023-06-22T01:51:30;1.80;;;1.40;;
55915;SDS011;41826;53.246;-6.670;2023-06-22T01:53:56;2.42;;;1.70;;
55915;SDS011;41826;53.246;-6.670;2023-06-22T01:56:21;1.40;;;1.30;;
55915;SDS011;41826;53.246;-6.670;2023-06-22T01:58:49;2.15;;;1.58;;
55915;SDS011;41826;53.246;-6.670;2023-06-22T02:01:23;1.80;;;1.45;;
55915;SDS011;41826;53.246;-6.670;2023-06-22T02:04:18;1.48;;;1.13;;
55915;SDS011;41826;53.246;-6.670;2023-06-22T02:06:48;1.50;;;1.15;;
55915;SDS011;41826;53.246;-6.670;2023-06-22T02:09:20;1.20;;;1.08;;
55915;SDS011;41826;53.246;-6.670;2023-06-22T02:11:47;2.25;;;1.30;;
55915;SDS011;41826;53.246;-6.670;2023-06-22T02:14:19;1.67;;;1.52;;
55915;SDS011;41826;53.246;-6.670;2023-06-22T02:16:46;1.73;;;1.20;;
55915;SDS011;41826;53.246;-6.670;2023-06-22T02:19:12;3.30;;;1.40;;
55915;SDS011;41826;53.246;-6.670;2023-06-22T02:21:40;1.90;;;1.40;;
55915;SDS011;41826;53.246;-6.670;2023-06-22T02:24:06;4.03;;;2.00;;
55915;SDS011;41826;53.246;-6.670;2023-06-22T02:26:31;3.47;;;2.42;;
55915;SDS011;41826;53.246;-6.670;2023-06-22T02:28:57;1.60;;;1.30;;
55915;SDS011;41826;53.246;-6.670;2023-06-22T02:31:23;1.13;;;1.00;;
55915;SDS011;41826;53.246;-6.670;2023-06-22T02:33:58;1.27;;;1.10;;
55915;SDS011;41826;53.246;-6.670;2023-06-22T02:36:24;1.25;;;1.15;;
55915;SDS011;41826;53.246;-6.670;2023-06-22T02:38:51;1.27;;;1.13;;
55915;SDS011;41826;53.246;-6.670;2023-06-22T02:41:18;1.40;;;1.30;;
55915;SDS011;41826;53.246;-6.670;2023-06-22T02:43:44;1.50;;;1.40;;
55915;SDS011;41826;53.246;-6.670;2023-06-22T02:46:10;2.25;;;1.38;;
55915;SDS011;41826;53.246;-6.670;2023-06-22T02:48:37;1.95;;;1.40;;
55915;SDS011;41826;53.246;-6.670;2023-06-22T02:51:03;2.08;;;1.30;;
55915;SDS011;41826;53.246;-6.670;2023-06-22T02:53:28;1.10;;;1.00;;
55915;SDS011;41826;53.246;-6.670;2023-06-22T02:55:55;1.20;;;1.10;;
55915;SDS011;41826;53.246;-6.670;2023-06-22T02:58:20;1.40;;;1.13;;
55915;SDS011;41826;53.246;-6.670;2023-06-22T03:00:48;2.33;;;1.30;;
55915;SDS011;41826;53.246;-6.670;2023-06-22T03:03:18;1.50;;;1.20;;
55915;SDS011;41826;53.246;-6.670;2023-06-22T03:05:43;3.38;;;1.42;;
55915;SDS011;41826;53.246;-6.670;2023-06-22T03:08:09;1.40;;;1.20;;
55915;SDS011;41826;53.246;-6.670;2023-06-22T03:10:34;1.27;;;1.17;;
55915;SDS011;41826;53.246;-6.670;2023-06-22T03:13:00;0.95;;;0.90;;
55915;SDS011;41826;53.246;-6.670;2023-06-22T03:15:25;1.50;;;1.15;;
55915;SDS011;41826;53.246;-6.670;2023-06-22T03:17:51;1.25;;;1.10;;
55915;SDS011;41826;53.246;-6.670;2023-06-22T03:20:16;1.23;;;1.13;;
55915;SDS011;41826;53.246;-6.670;2023-06-22T03:22:42;1.65;;;1.10;;
55915;SDS011;41826;53.246;-6.670;2023-06-22T03:25:08;1.75;;;1.15;;
55915;SDS011;41826;53.246;-6.670;2023-06-22T03:27:41;1.20;;;1.10;;
55915;SDS011;41826;53.246;-6.670;2023-06-22T03:30:08;1.60;;;1.50;;
55915;SDS011;41826;53.246;-6.670;2023-06-22T03:32:34;1.13;;;0.98;;
55915;SDS011;41826;53.246;-6.670;2023-06-22T03:35:00;2.53;;;1.73;;
55915;SDS011;41826;53.246;-6.670;2023-06-22T03:37:26;1.65;;;1.40;;
55915;SDS011;41826;53.246;-6.670;2023-06-22T03:39:52;1.42;;;1.10;;
55915;SDS011;41826;53.246;-6.670;2023-06-22T03:42:17;1.38;;;1.20;;
55915;SDS011;41826;53.246;-6.670;2023-06-22T03:44:43;1.33;;;1.08;;
55915;SDS011;41826;53.246;-6.670;2023-06-22T03:47:09;1.20;;;1.10;;
55915;SDS011;41826;53.246;-6.670;2023-06-22T03:49:34;1.30;;;1.20;;
55915;SDS011;41826;53.246;-6.670;2023-06-22T03:52:00;2.85;;;1.10;;
55915;SDS011;41826;53.246;-6.670;2023-06-22T03:54:29;0.75;;;0.75;;
55915;SDS011;41826;53.246;-6.670;2023-06-22T03:56:56;1.48;;;1.38;;
55915;SDS011;41826;53.246;-6.670;2023-06-22T03:59:22;1.15;;;1.05;;
55915;SDS011;41826;53.246;-6.670;2023-06-22T04:01:48;1.15;;;1.02;;
55915;SDS011;41826;53.246;-6.670;2023-06-22T04:04:14;4.28;;;2.20;;
55915;SDS011;41826;53.246;-6.670;2023-06-22T04:06:39;1.15;;;1.05;;
55915;SDS011;41826;53.246;-6.670;2023-06-22T04:09:05;1.50;;;1.40;;
55915;SDS011;41826;53.246;-6.670;2023-06-22T04:11:31;1.10;;;1.00;;
55915;SDS011;41826;53.246;-6.670;2023-06-22T04:13:56;1.55;;;1.45;;
55915;SDS011;41826;53.246;-6.670;2023-06-22T04:16:22;4.25;;;2.05;;
55915;SDS011;41826;53.246;-6.670;2023-06-22T04:18:47;1.15;;;1.00;;
55915;SDS011;41826;53.246;-6.670;2023-06-22T04:21:13;1.70;;;1.20;;
55915;SDS011;41826;53.246;-6.670;2023-06-22T04:23:39;0.93;;;0.90;;
55915;SDS011;41826;53.246;-6.670;2023-06-22T04:26:04;1.13;;;1.02;;
55915;SDS011;41826;53.246;-6.670;2023-06-22T04:28:29;1.48;;;1.20;;
55915;SDS011;41826;53.246;-6.670;2023-06-22T04:30:59;1.63;;;1.17;;
55915;SDS011;41826;53.246;-6.670;2023-06-22T04:33:27;1.17;;;1.08;;
55915;SDS011;41826;53.246;-6.670;2023-06-22T04:35:54;4.40;;;2.13;;
55915;SDS011;41826;53.246;-6.670;2023-06-22T04:38:22;1.45;;;1.35;;
55915;SDS011;41826;53.246;-6.670;2023-06-22T04:40:48;1.02;;;0.93;;
55915;SDS011;41826;53.246;-6.670;2023-06-22T04:43:14;1.40;;;1.30;;
55915;SDS011;41826;53.246;-6.670;2023-06-22T04:45:40;1.17;;;1.02;;
55915;SDS011;41826;53.246;-6.670;2023-06-22T04:48:05;1.65;;;0.90;;
55915;SDS011;41826;53.246;-6.670;2023-06-22T04:50:31;1.10;;;0.80;;
55915;SDS011;41826;53.246;-6.670;2023-06-22T04:52:56;1.00;;;0.82;;
55915;SDS011;41826;53.246;-6.670;2023-06-22T04:55:22;0.90;;;0.90;;
55915;SDS011;41826;53.246;-6.670;2023-06-22T04:57:47;0.98;;;0.93;;
55915;SDS011;41826;53.246;-6.670;2023-06-22T05:00:16;0.80;;;0.80;;
55915;SDS011;41826;53.246;-6.670;2023-06-22T05:02:48;2.90;;;2.35;;
55915;SDS011;41826;53.246;-6.670;2023-06-22T05:05:13;4.72;;;2.58;;
55915;SDS011;41826;53.246;-6.670;2023-06-22T05:07:41;3.10;;;2.90;;
55915;SDS011;41826;53.246;-6.670;2023-06-22T05:10:08;3.80;;;3.08;;
55915;SDS011;41826;53.246;-6.670;2023-06-22T05:12:36;4.78;;;3.60;;
55915;SDS011;41826;53.246;-6.670;2023-06-22T05:15:01;3.58;;;3.28;;
55915;SDS011;41826;53.246;-6.670;2023-06-22T05:17:27;6.35;;;3.50;;
55915;SDS011;41826;53.246;-6.670;2023-06-22T05:19:53;4.93;;;3.50;;
55915;SDS011;41826;53.246;-6.670;2023-06-22T05:22:18;3.67;;;3.22;;
55915;SDS011;41826;53.246;-6.670;2023-06-22T05:24:44;5.63;;;3.75;;
55915;SDS011;41826;53.246;-6.670;2023-06-22T05:27:11;7.25;;;3.30;;
55915;SDS011;41826;53.246;-6.670;2023-06-22T05:29:36;5.55;;;3.33;;
55915;SDS011;41826;53.246;-6.670;2023-06-22T05:32:03;4.32;;;2.90;;
55915;SDS011;41826;53.246;-6.670;2023-06-22T05:34:28;5.13;;;3.17;;
55915;SDS011;41826;53.246;-6.670;2023-06-22T05:36:54;5.90;;;2.42;;
55915;SDS011;41826;53.246;-6.670;2023-06-22T05:39:19;4.32;;;3.17;;
55915;SDS011;41826;53.246;-6.670;2023-06-22T05:41:45;5.25;;;3.17;;
55915;SDS011;41826;53.246;-6.670;2023-06-22T05:44:11;4.13;;;3.08;;
55915;SDS011;41826;53.246;-6.670;2023-06-22T05:46:37;7.68;;;3.47;;
55915;SDS011;41826;53.246;-6.670;2023-06-22T05:49:05;9.23;;;3.97;;
55915;SDS011;41826;53.246;-6.670;2023-06-22T05:51:31;5.82;;;2.70;;
55915;SDS011;41826;53.246;-6.670;2023-06-22T05:53:56;5.25;;;3.55;;
55915;SDS011;41826;53.246;-6.670;2023-06-22T05:56:22;4.93;;;3.45;;
55915;SDS011;41826;53.246;-6.670;2023-06-22T05:58:47;3.97;;;2.90;;
55915;SDS011;41826;53.246;-6.670;2023-06-22T06:01:12;4.25;;;3.17;;
55915;SDS011;41826;53.246;-6.670;2023-06-22T06:03:40;6.93;;;3.60;;
55915;SDS011;41826;53.246;-6.670;2023-06-22T06:06:06;6.88;;;3.97;;
55915;SDS011;41826;53.246;-6.670;2023-06-22T06:08:32;5.57;;;3.47;;
55915;SDS011;41826;53.246;-6.670;2023-06-22T06:10:57;8.05;;;3.22;;
55915;SDS011;41826;53.246;-6.670;2023-06-22T06:13:23;4.55;;;3.08;;
55915;SDS011;41826;53.246;-6.670;2023-06-22T06:15:48;7.25;;;3.80;;
55915;SDS011;41826;53.246;-6.670;2023-06-22T06:18:16;4.38;;;3.47;;
55915;SDS011;41826;53.246;-6.670;2023-06-22T06:20:42;8.52;;;3.58;;
55915;SDS011;41826;53.246;-6.670;2023-06-22T06:23:07;4.13;;;3.30;;
55915;SDS011;41826;53.246;-6.670;2023-06-22T06:25:33;7.18;;;3.55;;
55915;SDS011;41826;53.246;-6.670;2023-06-22T06:27:58;7.10;;;3.67;;
55915;SDS011;41826;53.246;-6.670;2023-06-22T06:30:23;5.90;;;3.85;;
55915;SDS011;41826;53.246;-6.670;2023-06-22T06:32:49;4.43;;;3.67;;
55915;SDS011;41826;53.246;-6.670;2023-06-22T06:35:15;9.57;;;3.60;;
55915;SDS011;41826;53.246;-6.670;2023-06-22T06:37:42;7.18;;;3.33;;
55915;SDS011;41826;53.246;-6.670;2023-06-22T06:40:09;9.32;;;3.20;;
55915;SDS011;41826;53.246;-6.670;2023-06-22T06:42:37;6.82;;;3.85;;
55915;SDS011;41826;53.246;-6.670;2023-06-22T06:45:05;10.10;;;3.20;;
55915;SDS011;41826;53.246;-6.670;2023-06-22T06:47:31;3.47;;;3.17;;
55915;SDS011;41826;53.246;-6.670;2023-06-22T06:49:57;6.65;;;3.05;;
55915;SDS011;41826;53.246;-6.670;2023-06-22T06:52:22;5.85;;;3.67;;
55915;SDS011;41826;53.246;-6.670;2023-06-22T06:54:48;9.77;;;4.00;;
55915;SDS011;41826;53.246;-6.670;2023-06-22T06:57:13;7.97;;;3.72;;
55915;SDS011;41826;53.246;-6.670;2023-06-22T06:59:40;10.57;;;4.00;;
55915;SDS011;41826;53.246;-6.670;2023-06-22T07:02:05;7.40;;;4.85;;
55915;SDS011;41826;53.246;-6.670;2023-06-22T07:04:30;7.13;;;4.78;;
55915;SDS011;41826;53.246;-6.670;2023-06-22T07:06:56;10.43;;;5.70;;
55915;SDS011;41826;53.246;-6.670;2023-06-22T07:09:21;7.07;;;5.15;;
55915;SDS011;41826;53.246;-6.670;2023-06-22T07:11:47;12.40;;;5.55;;
55915;SDS011;41826;53.246;-6.670;2023-06-22T07:14:12;8.35;;;5.55;;
55915;SDS011;41826;53.246;-6.670;2023-06-22T07:16:37;8.43;;;5.32;;
55915;SDS011;41826;53.246;-6.670;2023-06-22T07:19:03;7.53;;;5.20;;
55915;SDS011;41826;53.246;-6.670;2023-06-22T07:21:28;10.27;;;5.53;;
55915;SDS011;41826;53.246;-6.670;2023-06-22T07:23:53;8.57;;;5.43;;
55915;SDS011;41826;53.246;-6.670;2023-06-22T07:26:19;9.82;;;4.60;;
55915;SDS011;41826;53.246;-6.670;2023-06-22T07:28:45;8.52;;;5.22;;
55915;SDS011;41826;53.246;-6.670;2023-06-22T07:31:10;7.88;;;5.75;;
55915;SDS011;41826;53.246;-6.670;2023-06-22T07:33:36;10.07;;;5.10;;
55915;SDS011;41826;53.246;-6.670;2023-06-22T07:36:01;13.55;;;4.88;;
55915;SDS011;41826;53.246;-6.670;2023-06-22T07:38:32;7.80;;;4.68;;
55915;SDS011;41826;53.246;-6.670;2023-06-22T07:40:57;6.90;;;4.53;;
55915;SDS011;41826;53.246;-6.670;2023-06-22T07:43:23;13.32;;;4.88;;
55915;SDS011;41826;53.246;-6.670;2023-06-22T07:45:49;6.85;;;4.68;;
55915;SDS011;41826;53.246;-6.670;2023-06-22T07:48:21;9.70;;;5.47;;
55915;SDS011;41826;53.246;-6.670;2023-06-22T07:50:47;11.75;;;5.20;;
55915;SDS011;41826;53.246;-6.670;2023-06-22T07:53:12;9.02;;;5.25;;
55915;SDS011;41826;53.246;-6.670;2023-06-22T07:55:38;6.18;;;3.78;;
55915;SDS011;41826;53.246;-6.670;2023-06-22T07:58:03;6.75;;;3.60;;
55915;SDS011;41826;53.246;-6.670;2023-06-22T08:00:29;7.18;;;4.03;;
55915;SDS011;41826;53.246;-6.670;2023-06-22T08:02:54;11.25;;;3.90;;
55915;SDS011;41826;53.246;-6.670;2023-06-22T08:05:20;8.52;;;3.15;;
55915;SDS011;41826;53.246;-6.670;2023-06-22T08:07:45;4.88;;;3.22;;
55915;SDS011;41826;53.246;-6.670;2023-06-22T08:10:11;4.50;;;2.92;;
55915;SDS011;41826;53.246;-6.670;2023-06-22T08:12:37;8.48;;;3.67;;
55915;SDS011;41826;53.246;-6.670;2023-06-22T08:15:03;8.18;;;2.53;;
55915;SDS011;41826;53.246;-6.670;2023-06-22T08:17:29;8.70;;;3.28;;
55915;SDS011;41826;53.246;-6.670;2023-06-22T08:19:54;4.30;;;3.00;;
55915;SDS011;41826;53.246;-6.670;2023-06-22T08:22:19;5.00;;;2.65;;
55915;SDS011;41826;53.246;-6.670;2023-06-22T08:24:45;3.83;;;2.65;;
55915;SDS011;41826;53.246;-6.670;2023-06-22T08:27:10;3.83;;;2.60;;
55915;SDS011;41826;53.246;-6.670;2023-06-22T08:29:39;4.60;;;2.67;;
55915;SDS011;41826;53.246;-6.670;2023-06-22T08:32:07;4.25;;;2.97;;
55915;SDS011;41826;53.246;-6.670;2023-06-22T08:34:34;6.40;;;3.03;;
55915;SDS011;41826;53.246;-6.670;2023-06-22T08:36:59;4.43;;;2.60;;
55915;SDS011;41826;53.246;-6.670;2023-06-22T08:39:25;3.38;;;2.60;;
55915;SDS011;41826;53.246;-6.670;2023-06-22T08:41:51;5.68;;;2.72;;
55915;SDS011;41826;53.246;-6.670;2023-06-22T08:44:18;4.18;;;2.35;;
55915;SDS011;41826;53.246;-6.670;2023-06-22T08:46:44;5.32;;;2.55;;
55915;SDS011;41826;53.246;-6.670;2023-06-22T08:49:09;2.75;;;2.22;;
55915;SDS011;41826;53.246;-6.670;2023-06-22T08:51:35;4.85;;;2.50;;
55915;SDS011;41826;53.246;-6.670;2023-06-22T08:54:00;4.57;;;2.20;;
55915;SDS011;41826;53.246;-6.670;2023-06-22T08:56:26;3.75;;;2.05;;
55915;SDS011;41826;53.246;-6.670;2023-06-22T08:58:51;2.45;;;1.90;;
55915;SDS011;41826;53.246;-6.670;2023-06-22T09:01:17;6.45;;;2.08;;
55915;SDS011;41826;53.246;-6.670;2023-06-22T09:03:42;3.38;;;1.95;;
55915;SDS011;41826;53.246;-6.670;2023-06-22T09:06:08;1.63;;;1.50;;
55915;SDS011;41826;53.246;-6.670;2023-06-22T09:08:37;2.58;;;1.50;;
55915;SDS011;41826;53.246;-6.670;2023-06-22T09:11:02;3.15;;;1.50;;
55915;SDS011;41826;53.246;-6.670;2023-06-22T09:13:29;6.90;;;1.63;;
55915;SDS011;41826;53.246;-6.670;2023-06-22T09:15:55;1.67;;;1.30;;
55915;SDS011;41826;53.246;-6.670;2023-06-22T09:18:21;1.48;;;1.13;;
55915;SDS011;41826;53.246;-6.670;2023-06-22T09:20:46;2.33;;;1.38;;
55915;SDS011;41826;53.246;-6.670;2023-06-22T09:23:12;3.72;;;1.70;;
55915;SDS011;41826;53.246;-6.670;2023-06-22T09:25:37;2.47;;;1.50;;
55915;SDS011;41826;53.246;-6.670;2023-06-22T09:28:03;2.42;;;1.65;;
55915;SDS011;41826;53.246;-6.670;2023-06-22T09:30:28;3.13;;;1.65;;
55915;SDS011;41826;53.246;-6.670;2023-06-22T09:32:53;1.27;;;1.17;;
55915;SDS011;41826;53.246;-6.670;2023-06-22T09:35:19;2.13;;;1.50;;
55915;SDS011;41826;53.246;-6.670;2023-06-22T09:37:45;2.17;;;1.92;;
55915;SDS011;41826;53.246;-6.670;2023-06-22T09:40:10;3.03;;;1.38;;
55915;SDS011;41826;53.246;-6.670;2023-06-22T09:42:38;2.55;;;1.73;;
55915;SDS011;41826;53.246;-6.670;2023-06-22T09:45:04;2.67;;;1.60;;
55915;SDS011;41826;53.246;-6.670;2023-06-22T09:47:30;2.45;;;1.50;;
55915;SDS011;41826;53.246;-6.670;2023-06-22T09:49:56;1.42;;;1.10;;
55915;SDS011;41826;53.246;-6.670;2023-06-22T09:52:21;2.22;;;1.60;;
55915;SDS011;41826;53.246;-6.670;2023-06-22T09:54:47;2.03;;;1.20;;
55915;SDS011;41826;53.246;-6.670;2023-06-22T09:57:12;4.97;;;1.67;;
55915;SDS011;41826;53.246;-6.670;2023-06-22T09:59:38;3.40;;;1.45;;
55915;SDS011;41826;53.246;-6.670;2023-06-22T10:02:05;2.33;;;1.30;;
55915;SDS011;41826;53.246;-6.670;2023-06-22T10:04:31;0.70;;;0.70;;
55915;SDS011;41826;53.246;-6.670;2023-06-22T10:06:56;1.95;;;1.08;;
55915;SDS011;41826;53.246;-6.670;2023-06-22T10:09:22;2.95;;;1.70;;
55915;SDS011;41826;53.246;-6.670;2023-06-22T10:11:47;4.05;;;1.63;;
55915;SDS011;41826;53.246;-6.670;2023-06-22T10:14:12;1.63;;;1.08;;
55915;SDS011;41826;53.246;-6.670;2023-06-22T10:16:38;1.98;;;1.08;;
55915;SDS011;41826;53.246;-6.670;2023-06-22T10:19:03;1.35;;;1.17;;
55915;SDS011;41826;53.246;-6.670;2023-06-22T10:21:29;3.50;;;1.27;;
55915;SDS011;41826;53.246;-6.670;2023-06-22T10:23:54;3.60;;;1.83;;
55915;SDS011;41826;53.246;-6.670;2023-06-22T10:26:20;1.77;;;1.40;;
55915;SDS011;41826;53.246;-6.670;2023-06-22T10:28:46;1.40;;;1.13;;
55915;SDS011;41826;53.246;-6.670;2023-06-22T10:31:11;3.70;;;1.40;;
55915;SDS011;41826;53.246;-6.670;2023-06-22T10:33:37;2.75;;;1.33;;
55915;SDS011;41826;53.246;-6.670;2023-06-22T10:36:02;5.45;;;1.95;;
55915;SDS011;41826;53.246;-6.670;2023-06-22T10:38:27;4.25;;;1.27;;
55915;SDS011;41826;53.246;-6.670;2023-06-22T10:40:53;1.40;;;1.20;;
55915;SDS011;41826;53.246;-6.670;2023-06-22T10:43:18;1.40;;;0.98;;
55915;SDS011;41826;53.246;-6.670;2023-06-22T10:45:45;1.05;;;1.02;;
55915;SDS011;41826;53.246;-6.670;2023-06-22T10:48:10;1.67;;;0.82;;
55915;SDS011;41826;53.246;-6.670;2023-06-22T10:50:35;4.35;;;1.48;;
55915;SDS011;41826;53.246;-6.670;2023-06-22T10:53:01;2.80;;;1.60;;
55915;SDS011;41826;53.246;-6.670;2023-06-22T10:55:26;2.33;;;1.55;;
55915;SDS011;41826;53.246;-6.670;2023-06-22T10:57:52;2.20;;;1.52;;
55915;SDS011;41826;53.246;-6.670;2023-06-22T11:00:17;4.38;;;1.55;;
55915;SDS011;41826;53.246;-6.670;2023-06-22T11:02:43;1.63;;;1.30;;
55915;SDS011;41826;53.246;-6.670;2023-06-22T11:05:08;4.10;;;1.58;;
55915;SDS011;41826;53.246;-6.670;2023-06-22T11:07:34;1.23;;;0.90;;
55915;SDS011;41826;53.246;-6.670;2023-06-22T11:09:59;2.97;;;1.75;;
55915;SDS011;41826;53.246;-6.670;2023-06-22T11:12:25;5.32;;;1.63;;
55915;SDS011;41826;53.246;-6.670;2023-06-22T11:14:50;2.00;;;1.77;;
55915;SDS011;41826;53.246;-6.670;2023-06-22T11:17:17;3.15;;;2.10;;
55915;SDS011;41826;53.246;-6.670;2023-06-22T11:19:43;3.95;;;1.73;;
55915;SDS011;41826;53.246;-6.670;2023-06-22T11:22:09;1.88;;;1.38;;
55915;SDS011;41826;53.246;-6.670;2023-06-22T11:24:34;2.08;;;1.42;;
55915;SDS011;41826;53.246;-6.670;2023-06-22T11:26:59;3.72;;;1.60;;
55915;SDS011;41826;53.246;-6.670;2023-06-22T11:29:25;2.42;;;1.65;;
55915;SDS011;41826;53.246;-6.670;2023-06-22T11:31:50;4.32;;;1.85;;
55915;SDS011;41826;53.246;-6.670;2023-06-22T11:34:16;3.85;;;1.50;;
55915;SDS011;41826;53.246;-6.670;2023-06-22T11:36:41;2.50;;;1.45;;
55915;SDS011;41826;53.246;-6.670;2023-06-22T11:39:08;2.92;;;1.40;;
55915;SDS011;41826;53.246;-6.670;2023-06-22T11:41:34;2.58;;;1.50;;
55915;SDS011;41826;53.246;-6.670;2023-06-22T11:44:00;1.08;;;1.08;;
55915;SDS011;41826;53.246;-6.670;2023-06-22T11:46:25;2.00;;;1.70;;
55915;SDS011;41826;53.246;-6.670;2023-06-22T11:48:51;2.35;;;1.67;;
55915;SDS011;41826;53.246;-6.670;2023-06-22T11:51:16;1.92;;;1.15;;
55915;SDS011;41826;53.246;-6.670;2023-06-22T11:53:41;7.00;;;1.80;;
55915;SDS011;41826;53.246;-6.670;2023-06-22T11:56:07;4.07;;;1.90;;
55915;SDS011;41826;53.246;-6.670;2023-06-22T11:58:32;1.88;;;1.60;;
55915;SDS011;41826;53.246;-6.670;2023-06-22T12:00:58;2.70;;;1.33;;
55915;SDS011;41826;53.246;-6.670;2023-06-22T12:03:23;6.68;;;2.47;;
55915;SDS011;41826;53.246;-6.670;2023-06-22T12:05:49;2.10;;;1.88;;
55915;SDS011;41826;53.246;-6.670;2023-06-22T12:08:15;2.60;;;1.85;;
55915;SDS011;41826;53.246;-6.670;2023-06-22T12:10:40;2.13;;;1.92;;
55915;SDS011;41826;53.246;-6.670;2023-06-22T12:13:06;2.63;;;1.70;;
55915;SDS011;41826;53.246;-6.670;2023-06-22T12:15:31;2.25;;;1.30;;
55915;SDS011;41826;53.246;-6.670;2023-06-22T12:17:57;1.30;;;1.20;;
55915;SDS011;41826;53.246;-6.670;2023-06-22T12:20:22;2.33;;;1.40;;
55915;SDS011;41826;53.246;-6.670;2023-06-22T12:22:48;1.70;;;1.35;;
55915;SDS011;41826;53.246;-6.670;2023-06-22T12:25:16;1.33;;;1.15;;
55915;SDS011;41826;53.246;-6.670;2023-06-22T12:27:41;1.85;;;1.23;;
55915;SDS011;41826;53.246;-6.670;2023-06-22T12:30:08;1.58;;;1.40;;
55915;SDS011;41826;53.246;-6.670;2023-06-22T12:32:33;2.15;;;1.42;;
55915;SDS011;41826;53.246;-6.670;2023-06-22T12:34:59;3.95;;;1.63;;
55915;SDS011;41826;53.246;-6.670;2023-06-22T12:37:24;3.97;;;1.67;;
55915;SDS011;41826;53.246;-6.670;2023-06-22T12:39:50;2.75;;;1.95;;
55915;SDS011;41826;53.246;-6.670;2023-06-22T12:42:15;2.80;;;1.35;;
55915;SDS011;41826;53.246;-6.670;2023-06-22T12:44:41;5.68;;;1.50;;
55915;SDS011;41826;53.246;-6.670;2023-06-22T12:47:07;2.40;;;1.63;;
55915;SDS011;41826;53.246;-6.670;2023-06-22T12:49:34;1.60;;;1.50;;
55915;SDS011;41826;53.246;-6.670;2023-06-22T12:52:00;1.77;;;1.67;;
55915;SDS011;41826;53.246;-6.670;2023-06-22T12:54:25;1.50;;;1.40;;
55915;SDS011;41826;53.246;-6.670;2023-06-22T12:56:51;3.03;;;1.70;;
55915;SDS011;41826;53.246;-6.670;2023-06-22T12:59:16;4.03;;;1.70;;
55915;SDS011;41826;53.246;-6.670;2023-06-22T13:01:44;3.90;;;1.45;;
55915;SDS011;41826;53.246;-6.670;2023-06-22T13:04:11;3.42;;;1.60;;
55915;SDS011;41826;53.246;-6.670;2023-06-22T13:06:39;2.42;;;1.20;;
55915;SDS011;41826;53.246;-6.670;2023-06-22T13:09:05;1.95;;;1.60;;
55915;SDS011;41826;53.246;-6.670;2023-06-22T13:11:31;2.28;;;1.75;;
55915;SDS011;41826;53.246;-6.670;2023-06-22T13:13:56;1.80;;;1.55;;
55915;SDS011;41826;53.246;-6.670;2023-06-22T13:16:21;2.85;;;1.98;;
55915;SDS011;41826;53.246;-6.670;2023-06-22T13:18:47;3.08;;;1.73;;
55915;SDS011;41826;53.246;-6.670;2023-06-22T13:21:12;1.40;;;1.30;;
55915;SDS011;41826;53.246;-6.670;2023-06-22T13:23:39;1.77;;;1.05;;
55915;SDS011;41826;53.246;-6.670;2023-06-22T13:26:04;1.77;;;1.48;;
55915;SDS011;41826;53.246;-6.670;2023-06-22T13:28:30;1.77;;;1.42;;
55915;SDS011;41826;53.246;-6.670;2023-06-22T13:30:55;3.83;;;1.70;;
55915;SDS011;41826;53.246;-6.670;2023-06-22T13:33:21;1.83;;;1.35;;
55915;SDS011;41826;53.246;-6.670;2023-06-22T13:35:46;2.45;;;1.63;;
55915;SDS011;41826;53.246;-6.670;2023-06-22T13:38:11;1.98;;;1.42;;
55915;SDS011;41826;53.246;-6.670;2023-06-22T13:40:37;3.00;;;1.52;;
55915;SDS011;41826;53.246;-6.670;2023-06-22T13:43:03;1.70;;;1.60;;
55915;SDS011;41826;53.246;-6.670;2023-06-22T13:45:29;1.17;;;1.00;;
55915;SDS011;41826;53.246;-6.670;2023-06-22T13:47:55;2.38;;;1.40;;
55915;SDS011;41826;53.246;-6.670;2023-06-22T13:50:21;3.40;;;2.22;;
55915;SDS011;41826;53.246;-6.670;2023-06-22T13:52:46;7.90;;;2.47;;
55915;SDS011;41826;53.246;-6.670;2023-06-22T13:55:11;3.03;;;2.70;;
55915;SDS011;41826;53.246;-6.670;2023-06-22T13:57:39;4.43;;;2.60;;
55915;SDS011;41826;53.246;-6.670;2023-06-22T14:00:05;5.40;;;3.00;;
55915;SDS011;41826;53.246;-6.670;2023-06-22T14:02:31;5.95;;;2.63;;
55915;SDS011;41826;53.246;-6.670;2023-06-22T14:04:56;3.55;;;2.08;;
55915;SDS011;41826;53.246;-6.670;2023-06-22T14:07:22;3.17;;;2.50;;
55915;SDS011;41826;53.246;-6.670;2023-06-22T14:09:49;5.45;;;2.40;;
55915;SDS011;41826;53.246;-6.670;2023-06-22T14:12:14;8.23;;;2.30;;
55915;SDS011;41826;53.246;-6.670;2023-06-22T14:14:40;5.45;;;2.35;;
55915;SDS011;41826;53.246;-6.670;2023-06-22T14:17:06;4.38;;;2.20;;
55915;SDS011;41826;53.246;-6.670;2023-06-22T14:19:31;6.50;;;2.25;;
55915;SDS011;41826;53.246;-6.670;2023-06-22T14:21:57;3.50;;;2.40;;
55915;SDS011;41826;53.246;-6.670;2023-06-22T14:24:22;4.57;;;2.83;;
55915;SDS011;41826;53.246;-6.670;2023-06-22T14:26:48;4.75;;;2.60;;
55915;SDS011;41826;53.246;-6.670;2023-06-22T14:29:14;4.38;;;2.63;;
55915;SDS011;41826;53.246;-6.670;2023-06-22T14:31:39;2.90;;;2.58;;
55915;SDS011;41826;53.246;-6.670;2023-06-22T14:34:05;3.78;;;2.72;;
55915;SDS011;41826;53.246;-6.670;2023-06-22T14:36:31;4.93;;;2.78;;
55915;SDS011;41826;53.246;-6.670;2023-06-22T14:38:57;5.32;;;2.70;;